x

Ilm3 - 27 Miles Se Of Wrightsville Beach, Nc (41037) Weather Station

11:08 - Wed 29th Mar 2017 All times are EDT. -4 hours from GMT.

  • Wind
    18mph, 25mph gusts
  • Sea Temp 74°f
  • Aire Temp 65°f
  • Sea Pressure 1019.3mb
  • Ilm3 - 27 Miles Se Of Wrightsville Beach, Nc
  • Ilm3 - 27 Miles Se Of Wrightsville Beach, Nc

More Historic Weather Station data

Upgrade to MSW Pro to gain access to the past 30 days of data for over 8000 Wavebouys and Weather Stations around the globe.

Join Pro

Comparision Forecast

View Surf forecast
   
mié 03/29 11:08 18 25 mph 1019.3mb 74f 65f
10:08 20 27 mph 1018.9mb 74f 65f
9:08 18 27 mph 1018.2mb 74f 65f
8:08 20 27 mph 1017.5mb 74f 65f
7:08 20 27 mph 1016.7mb 74f 65f
6:08 20 29 mph 1016.9mb 74f 65f
5:08 18 27 mph 1016.9mb 74f 64f
4:08 18 22 mph 1016.6mb 74f 63f
3:08 18 25 mph 1016.6mb 74f 62f
2:08 20 27 mph 1016.4mb 73f 62f
12:08 22 31 mph 1017.2mb 73f 64f
11:08 20 27 mph 1016.4mb 73f 65f
10:08 16 22 mph 1015.5mb 72f 65f
9:08 16 22 mph 1014.9mb 70f 65f
8:08 13 22 mph 1014.3mb 71f 65f
7:08 13 22 mph 1013.5mb 70f 66f
6:08 16 25 mph 1012.7mb 70f 66f
5:08 11 18 mph 1012.3mb 70f 66f
4:08 11 16 mph 1012.3mb 69f 66f
3:08 11 16 mph 1012.5mb 69f 65f
2:08 7 11 mph 1012.2mb 69f 65f
1:08 11 13 mph 1012.1mb 69f 66f
12:08 11 16 mph 1012.2mb 70f 67f
mar 03/28 11:08 13 18 mph 1012.5mb 70f 67f
10:08 9 13 mph 1013.4mb 70f 66f
9:08 20 27 mph 1012.2mb 69f 70f
8:08 20 27 mph 1011.4mb 68f 70f
7:08 18 25 mph 1010.8mb 68f 70f
6:08 18 27 mph 1011.1mb 67f 71f
11:08 18 25 mph 1015.8mb 66f 68f
10:08 18 25 mph 1015.5mb 66f 68f
9:08 13 20 mph 1015.4mb 66f 68f
8:08 11 16 mph 1015.4mb 66f 68f
7:08 11 16 mph 1014.8mb 66f 68f
6:08 13 16 mph 1014.5mb 66f 68f
5:08 13 16 mph 1014.2mb 66f 69f
4:08 13 18 mph 1014mb 66f 69f
3:08 9 13 mph 1015.2mb 66f 69f
2:08 11 13 mph 1016.2mb 66f 69f
1:08 11 16 mph 1015.9mb 66f 69f
12:08 9 13 mph 1016.5mb 67f 69f
lun 03/27 11:08 9 16 mph 1016.8mb 67f 69f
10:08 9 13 mph 1017.3mb 67f 70f
9:08 9 13 mph 1017mb 67f 70f
8:08 4 7 mph 1016.9mb 66f 69f
7:08 7 9 mph 1016.7mb 66f 69f
6:08 4 9 mph 1016.8mb 67f 70f
5:08 4 9 mph 1016.8mb 65f 71f
4:08 4 9 mph 1018.4mb 66f 71f
3:08 4 9 mph 1019.3mb 65f 71f
2:08 4 7 mph 1019.7mb 64f 70f
1:08 2 7 mph 1020.5mb 64f 69f
12:08 2 7 mph 1021.9mb 64f 66f
11:08 4 9 mph 1021.4mb 64f 65f
10:08 2 7 mph 1021.1mb 65f 67f
9:08 4 7 mph 1020.9mb 65f 68f
8:08 4 9 mph 1020.2mb 65f 67f
7:08 7 9 mph 1019.4mb 65f 67f
6:08 9 11 mph 1019.2mb 65f 67f
5:08 9 13 mph 1019.1mb 64f 67f
4:08 11 13 mph 1019.1mb 63f 67f
3:08 9 13 mph 1019.7mb 62f 67f
2:08 11 16 mph 1020.2mb 62f 67f
1:08 13 20 mph 1020.8mb 62f 67f
12:08 13 18 mph 1021.1mb 62f 67f
dom 03/26 11:08 11 13 mph 1021.8mb 63f 67f
10:08 9 16 mph 1021.9mb 63f 67f
9:08 7 11 mph 1021.7mb 64f 67f
8:08 9 13 mph 1021.7mb 64f 67f
7:08 4 9 mph 1021.9mb 65f 67f
6:08 4 9 mph 1021.8mb 63f 69f
5:08 4 9 mph 1021.5mb 64f 69f
4:08 4 9 mph 1022.8mb 64f 69f
3:08 7 9 mph 1022.6mb 64f 69f
2:08 4 7 mph 1022.9mb 65f 69f
1:08 2 4 mph 1023.5mb 64f 68f
12:08 2 4 mph 1023.6mb 64f 68f
11:08 2 4 mph 1024.1mb 64f 67f
10:08 4 9 mph 1024.3mb 64f 67f
9:08 4 9 mph 1024mb 64f 68f
8:08 7 9 mph 1023.1mb 64f 66f
7:08 4 9 mph 1022.7mb 64f 66f
6:08 9 13 mph 1022.2mb 64f 66f
5:08 9 11 mph 1022.3mb 64f 66f